sensor_id;sensor_type;location;lat;lon;timestamp;temperature;humidity
47757;SHT35;22147;52.388;13.390;2022-09-17T00:01:28;11.29;92.10
47757;SHT35;22147;52.388;13.390;2022-09-17T00:04:00;11.34;91.93
47757;SHT35;22147;52.388;13.390;2022-09-17T00:06:34;11.36;91.91
47757;SHT35;22147;52.388;13.390;2022-09-17T00:09:06;11.40;91.63
47757;SHT35;22147;52.388;13.390;2022-09-17T00:11:38;11.50;91.18
47757;SHT35;22147;52.388;13.390;2022-09-17T00:14:16;11.43;91.13
47757;SHT35;22147;52.388;13.390;2022-09-17T00:16:47;11.42;91.40
47757;SHT35;22147;52.388;13.390;2022-09-17T00:19:22;11.46;91.49
47757;SHT35;22147;52.388;13.390;2022-09-17T00:21:50;11.47;91.06
47757;SHT35;22147;52.388;13.390;2022-09-17T00:24:19;11.47;91.54
47757;SHT35;22147;52.388;13.390;2022-09-17T00:26:48;11.49;90.90
47757;SHT35;22147;52.388;13.390;2022-09-17T00:29:15;11.50;91.41
47757;SHT35;22147;52.388;13.390;2022-09-17T00:31:42;11.55;91.01
47757;SHT35;22147;52.388;13.390;2022-09-17T00:34:10;11.52;91.34
47757;SHT35;22147;52.388;13.390;2022-09-17T00:36:39;11.50;91.09
47757;SHT35;22147;52.388;13.390;2022-09-17T00:39:10;11.53;91.20
47757;SHT35;22147;52.388;13.390;2022-09-17T00:41:38;11.57;91.02
47757;SHT35;22147;52.388;13.390;2022-09-17T00:47:51;11.50;91.24
47757;SHT35;22147;52.388;13.390;2022-09-17T00:50:40;11.53;91.34
47757;SHT35;22147;52.388;13.390;2022-09-17T00:53:15;11.55;91.46
47757;SHT35;22147;52.388;13.390;2022-09-17T00:56:10;11.55;91.18
47757;SHT35;22147;52.388;13.390;2022-09-17T00:58:40;11.56;91.18
47757;SHT35;22147;52.388;13.390;2022-09-17T01:01:07;11.55;91.20
47757;SHT35;22147;52.388;13.390;2022-09-17T01:03:35;11.55;91.37
47757;SHT35;22147;52.388;13.390;2022-09-17T01:12:14;11.67;90.99
47757;SHT35;22147;52.388;13.390;2022-09-17T01:15:02;11.65;91.04
47757;SHT35;22147;52.388;13.390;2022-09-17T01:21:19;11.67;90.60
47757;SHT35;22147;52.388;13.390;2022-09-17T01:33:52;11.70;91.09
47757;SHT35;22147;52.388;13.390;2022-09-17T01:42:58;11.82;90.65
47757;SHT35;22147;52.388;13.390;2022-09-17T01:45:48;11.70;90.65
47757;SHT35;22147;52.388;13.390;2022-09-17T01:48:24;11.66;90.95
47757;SHT35;22147;52.388;13.390;2022-09-17T01:53:57;11.66;91.22
47757;SHT35;22147;52.388;13.390;2022-09-17T01:56:38;11.66;91.55
47757;SHT35;22147;52.388;13.390;2022-09-17T01:59:28;11.63;91.50
47757;SHT35;22147;52.388;13.390;2022-09-17T02:02:12;11.67;91.77
47757;SHT35;22147;52.388;13.390;2022-09-17T02:05:33;11.67;91.67
47757;SHT35;22147;52.388;13.390;2022-09-17T02:10:57;11.74;91.37
47757;SHT35;22147;52.388;13.390;2022-09-17T02:13:41;11.77;91.33
47757;SHT35;22147;52.388;13.390;2022-09-17T02:16:25;11.79;91.36
47757;SHT35;22147;52.388;13.390;2022-09-17T02:19:27;11.77;91.55
47757;SHT35;22147;52.388;13.390;2022-09-17T02:22:29;11.74;91.55
47757;SHT35;22147;52.388;13.390;2022-09-17T02:30:30;11.74;91.87
47757;SHT35;22147;52.388;13.390;2022-09-17T02:33:01;11.76;92.10
47757;SHT35;22147;52.388;13.390;2022-09-17T02:35:31;11.80;91.99
47757;SHT35;22147;52.388;13.390;2022-09-17T02:38:00;11.79;92.18
47757;SHT35;22147;52.388;13.390;2022-09-17T02:40:47;11.74;92.08
47757;SHT35;22147;52.388;13.390;2022-09-17T02:43:52;11.71;92.36
47757;SHT35;22147;52.388;13.390;2022-09-17T02:49:53;11.73;92.40
47757;SHT35;22147;52.388;13.390;2022-09-17T02:55:35;11.76;92.64
47757;SHT35;22147;52.388;13.390;2022-09-17T03:00:46;11.79;92.68
47757;SHT35;22147;52.388;13.390;2022-09-17T03:03:37;11.82;92.76
47757;SHT35;22147;52.388;13.390;2022-09-17T03:06:05;11.83;92.66
47757;SHT35;22147;52.388;13.390;2022-09-17T03:08:40;11.83;92.28
47757;SHT35;22147;52.388;13.390;2022-09-17T03:11:10;11.79;92.10
47757;SHT35;22147;52.388;13.390;2022-09-17T03:13:39;11.83;92.17
47757;SHT35;22147;52.388;13.390;2022-09-17T03:16:06;11.84;91.92
47757;SHT35;22147;52.388;13.390;2022-09-17T03:18:34;11.91;91.84
47757;SHT35;22147;52.388;13.390;2022-09-17T03:21:01;11.89;91.66
47757;SHT35;22147;52.388;13.390;2022-09-17T03:23:28;11.84;91.57
47757;SHT35;22147;52.388;13.390;2022-09-17T03:25:55;11.86;91.84
47757;SHT35;22147;52.388;13.390;2022-09-17T03:28:23;11.87;91.69
47757;SHT35;22147;52.388;13.390;2022-09-17T03:30:52;11.89;91.63
47757;SHT35;22147;52.388;13.390;2022-09-17T03:33:20;11.84;91.52
47757;SHT35;22147;52.388;13.390;2022-09-17T03:35:48;11.90;91.64
47757;SHT35;22147;52.388;13.390;2022-09-17T03:38:16;11.91;91.55
47757;SHT35;22147;52.388;13.390;2022-09-17T03:40:43;11.91;91.29
47757;SHT35;22147;52.388;13.390;2022-09-17T03:43:10;11.91;91.13
47757;SHT35;22147;52.388;13.390;2022-09-17T03:45:37;11.91;91.23
47757;SHT35;22147;52.388;13.390;2022-09-17T03:48:04;11.94;91.13
47757;SHT35;22147;52.388;13.390;2022-09-17T03:50:31;11.93;91.37
47757;SHT35;22147;52.388;13.390;2022-09-17T03:52:58;11.90;91.60
47757;SHT35;22147;52.388;13.390;2022-09-17T03:56:40;11.83;91.83
47757;SHT35;22147;52.388;13.390;2022-09-17T03:59:07;11.83;92.10
47757;SHT35;22147;52.388;13.390;2022-09-17T04:01:35;11.80;92.23
47757;SHT35;22147;52.388;13.390;2022-09-17T04:04:03;11.80;92.30
47757;SHT35;22147;52.388;13.390;2022-09-17T04:06:30;11.83;92.37
47757;SHT35;22147;52.388;13.390;2022-09-17T04:08:57;11.82;92.36
47757;SHT35;22147;52.388;13.390;2022-09-17T04:11:26;11.82;92.03
47757;SHT35;22147;52.388;13.390;2022-09-17T04:13:53;11.84;91.82
47757;SHT35;22147;52.388;13.390;2022-09-17T04:16:21;11.84;91.95
47757;SHT35;22147;52.388;13.390;2022-09-17T04:18:48;11.89;92.09
47757;SHT35;22147;52.388;13.390;2022-09-17T04:21:14;11.83;92.03
47757;SHT35;22147;52.388;13.390;2022-09-17T04:23:41;11.84;92.07
47757;SHT35;22147;52.388;13.390;2022-09-17T04:26:08;11.83;91.98
47757;SHT35;22147;52.388;13.390;2022-09-17T04:28:36;11.79;92.13
47757;SHT35;22147;52.388;13.390;2022-09-17T04:31:03;11.76;92.19
47757;SHT35;22147;52.388;13.390;2022-09-17T04:33:30;11.76;92.31
47757;SHT35;22147;52.388;13.390;2022-09-17T04:35:57;11.77;92.19
47757;SHT35;22147;52.388;13.390;2022-09-17T04:38:24;11.77;92.24
47757;SHT35;22147;52.388;13.390;2022-09-17T04:40:51;11.77;92.19
47757;SHT35;22147;52.388;13.390;2022-09-17T04:43:19;11.77;92.24
47757;SHT35;22147;52.388;13.390;2022-09-17T04:45:47;11.77;92.30
47757;SHT35;22147;52.388;13.390;2022-09-17T04:48:16;11.84;92.34
47757;SHT35;22147;52.388;13.390;2022-09-17T04:50:43;11.82;92.06
47757;SHT35;22147;52.388;13.390;2022-09-17T04:53:10;11.83;92.14
47757;SHT35;22147;52.388;13.390;2022-09-17T04:55:38;11.80;92.11
47757;SHT35;22147;52.388;13.390;2022-09-17T04:58:05;11.80;91.94
47757;SHT35;22147;52.388;13.390;2022-09-17T05:00:32;11.83;92.19
47757;SHT35;22147;52.388;13.390;2022-09-17T05:03:01;11.83;92.31
47757;SHT35;22147;52.388;13.390;2022-09-17T05:05:28;11.79;92.32
47757;SHT35;22147;52.388;13.390;2022-09-17T05:07:55;11.82;92.26
47757;SHT35;22147;52.388;13.390;2022-09-17T05:10:22;11.87;92.38
47757;SHT35;22147;52.388;13.390;2022-09-17T05:12:55;11.90;92.28
47757;SHT35;22147;52.388;13.390;2022-09-17T05:15:25;11.94;92.13
47757;SHT35;22147;52.388;13.390;2022-09-17T05:17:52;11.89;92.06
47757;SHT35;22147;52.388;13.390;2022-09-17T05:20:20;11.91;92.11
47757;SHT35;22147;52.388;13.390;2022-09-17T05:22:51;11.95;92.21
47757;SHT35;22147;52.388;13.390;2022-09-17T05:25:21;11.98;92.06
47757;SHT35;22147;52.388;13.390;2022-09-17T05:27:52;11.98;92.10
47757;SHT35;22147;52.388;13.390;2022-09-17T05:30:20;11.94;91.74
47757;SHT35;22147;52.388;13.390;2022-09-17T05:32:48;11.97;91.96
47757;SHT35;22147;52.388;13.390;2022-09-17T05:35:15;12.04;91.94
47757;SHT35;22147;52.388;13.390;2022-09-17T05:37:42;11.97;91.80
47757;SHT35;22147;52.388;13.390;2022-09-17T05:40:09;12.07;91.77
47757;SHT35;22147;52.388;13.390;2022-09-17T05:42:36;12.18;91.84
47757;SHT35;22147;52.388;13.390;2022-09-17T05:45:06;12.34;91.67
47757;SHT35;22147;52.388;13.390;2022-09-17T05:47:33;12.41;91.48
47757;SHT35;22147;52.388;13.390;2022-09-17T05:50:01;12.41;91.32
47757;SHT35;22147;52.388;13.390;2022-09-17T05:52:28;12.48;91.56
47757;SHT35;22147;52.388;13.390;2022-09-17T05:54:55;12.31;91.57
47757;SHT35;22147;52.388;13.390;2022-09-17T05:57:23;12.26;92.00
47757;SHT35;22147;52.388;13.390;2022-09-17T05:59:50;12.24;92.17
47757;SHT35;22147;52.388;13.390;2022-09-17T06:02:17;12.17;92.23
47757;SHT35;22147;52.388;13.390;2022-09-17T06:04:45;12.18;92.32
47757;SHT35;22147;52.388;13.390;2022-09-17T06:07:12;12.14;92.40
47757;SHT35;22147;52.388;13.390;2022-09-17T06:09:39;12.15;92.52
47757;SHT35;22147;52.388;13.390;2022-09-17T06:12:08;12.11;92.56
47757;SHT35;22147;52.388;13.390;2022-09-17T06:14:37;12.10;92.65
47757;SHT35;22147;52.388;13.390;2022-09-17T06:17:04;12.13;92.58
47757;SHT35;22147;52.388;13.390;2022-09-17T06:19:31;12.14;92.43
47757;SHT35;22147;52.388;13.390;2022-09-17T06:21:58;12.20;92.51
47757;SHT35;22147;52.388;13.390;2022-09-17T06:24:25;12.32;92.54
47757;SHT35;22147;52.388;13.390;2022-09-17T06:26:52;12.38;92.19
47757;SHT35;22147;52.388;13.390;2022-09-17T06:29:20;12.45;91.46
47757;SHT35;22147;52.388;13.390;2022-09-17T06:31:48;12.48;91.20
47757;SHT35;22147;52.388;13.390;2022-09-17T06:34:16;12.49;91.28
47757;SHT35;22147;52.388;13.390;2022-09-17T06:36:43;12.59;91.54
47757;SHT35;22147;52.388;13.390;2022-09-17T06:39:10;12.56;91.28
47757;SHT35;22147;52.388;13.390;2022-09-17T06:41:38;12.44;90.72
47757;SHT35;22147;52.388;13.390;2022-09-17T06:44:05;12.39;90.65
47757;SHT35;22147;52.388;13.390;2022-09-17T06:46:32;12.38;90.90
47757;SHT35;22147;52.388;13.390;2022-09-17T06:48:59;12.35;90.64
47757;SHT35;22147;52.388;13.390;2022-09-17T06:51:26;12.46;90.72
47757;SHT35;22147;52.388;13.390;2022-09-17T06:53:53;12.51;90.29
47757;SHT35;22147;52.388;13.390;2022-09-17T06:56:20;12.55;90.05
47757;SHT35;22147;52.388;13.390;2022-09-17T06:58:47;12.52;89.50
47757;SHT35;22147;52.388;13.390;2022-09-17T07:01:14;12.61;89.02
47757;SHT35;22147;52.388;13.390;2022-09-17T07:03:42;12.62;88.48
47757;SHT35;22147;52.388;13.390;2022-09-17T07:06:10;12.61;88.58
47757;SHT35;22147;52.388;13.390;2022-09-17T07:08:38;12.68;88.65
47757;SHT35;22147;52.388;13.390;2022-09-17T07:11:06;12.68;87.75
47757;SHT35;22147;52.388;13.390;2022-09-17T07:13:35;12.77;87.93
47757;SHT35;22147;52.388;13.390;2022-09-17T07:16:03;12.77;88.17
47757;SHT35;22147;52.388;13.390;2022-09-17T07:18:32;12.76;86.15
47757;SHT35;22147;52.388;13.390;2022-09-17T07:21:04;12.84;87.61
47757;SHT35;22147;52.388;13.390;2022-09-17T07:23:35;12.87;86.67
47757;SHT35;22147;52.388;13.390;2022-09-17T07:26:12;12.83;86.04
47757;SHT35;22147;52.388;13.390;2022-09-17T07:28:42;12.84;86.34
47757;SHT35;22147;52.388;13.390;2022-09-17T07:31:11;12.96;86.33
47757;SHT35;22147;52.388;13.390;2022-09-17T07:33:43;12.90;85.46
47757;SHT35;22147;52.388;13.390;2022-09-17T07:36:14;13.04;85.03
47757;SHT35;22147;52.388;13.390;2022-09-17T07:38:44;13.13;85.75
47757;SHT35;22147;52.388;13.390;2022-09-17T07:41:16;13.19;85.52
47757;SHT35;22147;52.388;13.390;2022-09-17T07:43:44;13.14;84.65
47757;SHT35;22147;52.388;13.390;2022-09-17T07:46:18;13.10;85.40
47757;SHT35;22147;52.388;13.390;2022-09-17T07:48:48;13.19;85.89
47757;SHT35;22147;52.388;13.390;2022-09-17T07:51:23;13.14;84.72
47757;SHT35;22147;52.388;13.390;2022-09-17T07:53:56;13.17;84.56
47757;SHT35;22147;52.388;13.390;2022-09-17T07:56:27;13.32;83.73
47757;SHT35;22147;52.388;13.390;2022-09-17T07:58:54;13.28;83.29
47757;SHT35;22147;52.388;13.390;2022-09-17T08:01:21;13.37;82.88
47757;SHT35;22147;52.388;13.390;2022-09-17T08:03:53;13.40;82.67
47757;SHT35;22147;52.388;13.390;2022-09-17T08:06:25;13.54;84.18
47757;SHT35;22147;52.388;13.390;2022-09-17T08:08:58;13.55;83.13
47757;SHT35;22147;52.388;13.390;2022-09-17T08:11:30;13.86;82.96
47757;SHT35;22147;52.388;13.390;2022-09-17T08:14:17;14.00;81.27
47757;SHT35;22147;52.388;13.390;2022-09-17T08:16:44;14.17;81.51
47757;SHT35;22147;52.388;13.390;2022-09-17T08:19:13;14.05;79.87
47757;SHT35;22147;52.388;13.390;2022-09-17T08:21:40;13.98;80.03
47757;SHT35;22147;52.388;13.390;2022-09-17T08:24:07;13.78;79.56
47757;SHT35;22147;52.388;13.390;2022-09-17T08:26:34;13.76;80.33
47757;SHT35;22147;52.388;13.390;2022-09-17T08:29:02;13.75;81.21
47757;SHT35;22147;52.388;13.390;2022-09-17T08:31:29;13.69;80.72
47757;SHT35;22147;52.388;13.390;2022-09-17T08:33:56;13.75;80.02
47757;SHT35;22147;52.388;13.390;2022-09-17T08:36:24;14.10;80.80
47757;SHT35;22147;52.388;13.390;2022-09-17T08:38:54;14.28;78.61
47757;SHT35;22147;52.388;13.390;2022-09-17T08:44:44;14.09;77.69
47757;SHT35;22147;52.388;13.390;2022-09-17T08:47:38;13.95;78.31
47757;SHT35;22147;52.388;13.390;2022-09-17T08:50:30;14.14;77.13
47757;SHT35;22147;52.388;13.390;2022-09-17T08:54:11;14.31;76.08
47757;SHT35;22147;52.388;13.390;2022-09-17T08:57:02;14.19;76.20
47757;SHT35;22147;52.388;13.390;2022-09-17T08:59:59;14.30;76.54
47757;SHT35;22147;52.388;13.390;2022-09-17T09:03:16;14.78;75.30
47757;SHT35;22147;52.388;13.390;2022-09-17T09:05:52;14.71;75.03
47757;SHT35;22147;52.388;13.390;2022-09-17T09:08:46;15.15;73.40
47757;SHT35;22147;52.388;13.390;2022-09-17T09:11:25;15.26;74.12
47757;SHT35;22147;52.388;13.390;2022-09-17T09:14:12;15.26;72.65
47757;SHT35;22147;52.388;13.390;2022-09-17T09:16:44;15.44;72.81
47757;SHT35;22147;52.388;13.390;2022-09-17T09:19:40;15.02;72.69
47757;SHT35;22147;52.388;13.390;2022-09-17T09:22:50;14.79;72.15
47757;SHT35;22147;52.388;13.390;2022-09-17T09:25:44;14.60;71.84
47757;SHT35;22147;52.388;13.390;2022-09-17T09:32:23;14.91;72.12
47757;SHT35;22147;52.388;13.390;2022-09-17T09:35:12;15.07;72.18
47757;SHT35;22147;52.388;13.390;2022-09-17T09:41:48;15.23;71.64
47757;SHT35;22147;52.388;13.390;2022-09-17T09:44:17;15.30;69.78
47757;SHT35;22147;52.388;13.390;2022-09-17T09:47:31;15.12;69.55
47757;SHT35;22147;52.388;13.390;2022-09-17T09:50:49;15.23;70.72
47757;SHT35;22147;52.388;13.390;2022-09-17T09:57:33;14.74;70.62
47757;SHT35;22147;52.388;13.390;2022-09-17T10:00:27;14.71;71.63
47757;SHT35;22147;52.388;13.390;2022-09-17T10:03:15;14.50;71.91
47757;SHT35;22147;52.388;13.390;2022-09-17T10:06:08;14.44;73.63
47757;SHT35;22147;52.388;13.390;2022-09-17T10:11:31;14.24;75.04
47757;SHT35;22147;52.388;13.390;2022-09-17T10:14:43;14.10;75.68
47757;SHT35;22147;52.388;13.390;2022-09-17T10:17:27;14.12;76.01
47757;SHT35;22147;52.388;13.390;2022-09-17T10:22:45;14.71;74.87
47757;SHT35;22147;52.388;13.390;2022-09-17T10:25:34;14.96;73.59
47757;SHT35;22147;52.388;13.390;2022-09-17T10:28:27;15.26;72.30
47757;SHT35;22147;52.388;13.390;2022-09-17T10:31:00;15.40;70.26
47757;SHT35;22147;52.388;13.390;2022-09-17T10:33:50;15.61;69.55
47757;SHT35;22147;52.388;13.390;2022-09-17T10:36:43;15.68;68.15
47757;SHT35;22147;52.388;13.390;2022-09-17T10:39:33;15.44;67.90
47757;SHT35;22147;52.388;13.390;2022-09-17T10:42:03;15.07;68.61
47757;SHT35;22147;52.388;13.390;2022-09-17T10:44:37;15.22;69.72
47757;SHT35;22147;52.388;13.390;2022-09-17T10:47:29;15.29;68.61
47757;SHT35;22147;52.388;13.390;2022-09-17T10:50:18;15.06;68.91
47757;SHT35;22147;52.388;13.390;2022-09-17T10:53:03;15.00;69.68
47757;SHT35;22147;52.388;13.390;2022-09-17T11:01:47;14.99;68.95
47757;SHT35;22147;52.388;13.390;2022-09-17T11:10:24;15.60;67.04
47757;SHT35;22147;52.388;13.390;2022-09-17T11:13:46;15.47;65.10
47757;SHT35;22147;52.388;13.390;2022-09-17T11:25:58;15.64;64.72
47757;SHT35;22147;52.388;13.390;2022-09-17T11:35:23;15.26;67.14
47757;SHT35;22147;52.388;13.390;2022-09-17T11:37:57;15.05;67.41
47757;SHT35;22147;52.388;13.390;2022-09-17T11:41:03;15.09;66.19
47757;SHT35;22147;52.388;13.390;2022-09-17T11:44:26;15.19;67.79
47757;SHT35;22147;52.388;13.390;2022-09-17T11:46:44;15.25;66.71
47757;SHT35;22147;52.388;13.390;2022-09-17T11:49:50;15.30;67.42
47757;SHT35;22147;52.388;13.390;2022-09-17T11:52:45;15.50;66.67
47757;SHT35;22147;52.388;13.390;2022-09-17T11:55:43;15.95;64.43
47757;SHT35;22147;52.388;13.390;2022-09-17T11:58:58;16.18;64.64
47757;SHT35;22147;52.388;13.390;2022-09-17T12:04:45;16.30;61.54
47757;SHT35;22147;52.388;13.390;2022-09-17T12:07:40;16.36;61.50
47757;SHT35;22147;52.388;13.390;2022-09-17T12:16:19;16.49;60.43
47757;SHT35;22147;52.388;13.390;2022-09-17T12:19:16;16.25;60.60
47757;SHT35;22147;52.388;13.390;2022-09-17T12:24:38;16.18;61.13
47757;SHT35;22147;52.388;13.390;2022-09-17T12:27:51;15.90;60.49
47757;SHT35;22147;52.388;13.390;2022-09-17T12:30:42;15.87;61.47
47757;SHT35;22147;52.388;13.390;2022-09-17T12:33:46;15.85;62.11
47757;SHT35;22147;52.388;13.390;2022-09-17T12:36:46;15.85;64.09
47757;SHT35;22147;52.388;13.390;2022-09-17T12:43:27;15.61;60.36
47757;SHT35;22147;52.388;13.390;2022-09-17T12:46:45;15.40;59.50
47757;SHT35;22147;52.388;13.390;2022-09-17T12:59:52;16.18;60.86
47757;SHT35;22147;52.388;13.390;2022-09-17T13:02:47;16.47;59.45
47757;SHT35;22147;52.388;13.390;2022-09-17T13:06:26;16.15;59.24
47757;SHT35;22147;52.388;13.390;2022-09-17T13:16:33;15.42;65.01
47757;SHT35;22147;52.388;13.390;2022-09-17T13:19:38;15.49;60.03
47757;SHT35;22147;52.388;13.390;2022-09-17T13:22:19;15.78;58.69
47757;SHT35;22147;52.388;13.390;2022-09-17T13:25:09;16.36;55.90
47757;SHT35;22147;52.388;13.390;2022-09-17T13:27:39;16.50;55.49
47757;SHT35;22147;52.388;13.390;2022-09-17T13:30:10;16.39;54.36
47757;SHT35;22147;52.388;13.390;2022-09-17T13:40:32;15.37;55.31
47757;SHT35;22147;52.388;13.390;2022-09-17T13:45:31;15.37;57.37
47757;SHT35;22147;52.388;13.390;2022-09-17T13:48:10;15.64;56.43
47757;SHT35;22147;52.388;13.390;2022-09-17T13:50:42;16.06;55.89
47757;SHT35;22147;52.388;13.390;2022-09-17T13:55:50;16.21;54.83
47757;SHT35;22147;52.388;13.390;2022-09-17T14:08:50;16.21;56.22
47757;SHT35;22147;52.388;13.390;2022-09-17T14:14:40;17.24;52.75
47757;SHT35;22147;52.388;13.390;2022-09-17T14:17:49;17.25;48.51
47757;SHT35;22147;52.388;13.390;2022-09-17T14:20:23;17.39;49.74
47757;SHT35;22147;52.388;13.390;2022-09-17T14:23:01;17.67;50.45
47757;SHT35;22147;52.388;13.390;2022-09-17T14:25:48;17.52;50.35
47757;SHT35;22147;52.388;13.390;2022-09-17T14:31:35;16.42;52.30
47757;SHT35;22147;52.388;13.390;2022-09-17T14:34:20;15.98;54.62
47757;SHT35;22147;52.388;13.390;2022-09-17T14:36:52;15.57;56.66
47757;SHT35;22147;52.388;13.390;2022-09-17T14:39:35;15.43;57.25
47757;SHT35;22147;52.388;13.390;2022-09-17T14:42:22;15.12;57.82
47757;SHT35;22147;52.388;13.390;2022-09-17T14:45:24;14.96;58.20
47757;SHT35;22147;52.388;13.390;2022-09-17T14:48:25;14.78;58.18
47757;SHT35;22147;52.388;13.390;2022-09-17T14:51:24;14.96;57.59
47757;SHT35;22147;52.388;13.390;2022-09-17T14:59:33;15.73;57.72
47757;SHT35;22147;52.388;13.390;2022-09-17T15:02:17;15.87;56.46
47757;SHT35;22147;52.388;13.390;2022-09-17T15:04:46;16.22;55.22
47757;SHT35;22147;52.388;13.390;2022-09-17T15:07:13;16.43;55.50
47757;SHT35;22147;52.388;13.390;2022-09-17T15:09:40;16.71;54.27
47757;SHT35;22147;52.388;13.390;2022-09-17T15:12:16;16.77;55.88
47757;SHT35;22147;52.388;13.390;2022-09-17T15:14:47;16.61;56.77
47757;SHT35;22147;52.388;13.390;2022-09-17T15:17:18;16.94;56.55
47757;SHT35;22147;52.388;13.390;2022-09-17T15:19:52;17.07;57.06
47757;SHT35;22147;52.388;13.390;2022-09-17T15:22:30;16.63;57.39
47757;SHT35;22147;52.388;13.390;2022-09-17T15:25:21;16.09;58.91
47757;SHT35;22147;52.388;13.390;2022-09-17T15:28:15;15.54;59.89
47757;SHT35;22147;52.388;13.390;2022-09-17T15:30:49;15.61;59.05
47757;SHT35;22147;52.388;13.390;2022-09-17T15:33:16;15.67;56.26
47757;SHT35;22147;52.388;13.390;2022-09-17T15:36:25;15.65;54.82
47757;SHT35;22147;52.388;13.390;2022-09-17T15:38:57;15.60;56.32
47757;SHT35;22147;52.388;13.390;2022-09-17T15:41:34;15.88;55.67
47757;SHT35;22147;52.388;13.390;2022-09-17T15:44:16;16.09;55.15
47757;SHT35;22147;52.388;13.390;2022-09-17T15:47:55;15.19;56.97
47757;SHT35;22147;52.388;13.390;2022-09-17T15:50:31;14.81;57.42
47757;SHT35;22147;52.388;13.390;2022-09-17T15:59:04;13.86;59.32
47757;SHT35;22147;52.388;13.390;2022-09-17T16:08:58;13.31;61.67
47757;SHT35;22147;52.388;13.390;2022-09-17T16:11:31;13.17;62.04
47757;SHT35;22147;52.388;13.390;2022-09-17T16:14:00;13.17;62.22
47757;SHT35;22147;52.388;13.390;2022-09-17T16:16:35;13.10;62.16
47757;SHT35;22147;52.388;13.390;2022-09-17T16:19:04;13.13;63.07
47757;SHT35;22147;52.388;13.390;2022-09-17T16:21:32;13.00;62.83
47757;SHT35;22147;52.388;13.390;2022-09-17T16:23:59;12.61;64.50
47757;SHT35;22147;52.388;13.390;2022-09-17T16:26:34;12.45;65.12
47757;SHT35;22147;52.388;13.390;2022-09-17T16:29:14;12.42;65.45
47757;SHT35;22147;52.388;13.390;2022-09-17T16:31:42;12.41;66.25
47757;SHT35;22147;52.388;13.390;2022-09-17T16:34:10;12.46;66.46
47757;SHT35;22147;52.388;13.390;2022-09-17T16:36:38;12.51;66.58
47757;SHT35;22147;52.388;13.390;2022-09-17T16:39:05;12.52;65.77
47757;SHT35;22147;52.388;13.390;2022-09-17T16:41:32;12.48;66.41
47757;SHT35;22147;52.388;13.390;2022-09-17T16:43:59;12.39;66.53
47757;SHT35;22147;52.388;13.390;2022-09-17T16:46:26;12.42;66.47
47757;SHT35;22147;52.388;13.390;2022-09-17T16:48:53;12.42;66.85
47757;SHT35;22147;52.388;13.390;2022-09-17T16:51:20;12.39;66.83
47757;SHT35;22147;52.388;13.390;2022-09-17T16:53:47;12.31;67.93
47757;SHT35;22147;52.388;13.390;2022-09-17T16:56:16;12.26;66.09
47757;SHT35;22147;52.388;13.390;2022-09-17T16:58:43;12.26;65.85
47757;SHT35;22147;52.388;13.390;2022-09-17T17:01:14;12.15;66.61
47757;SHT35;22147;52.388;13.390;2022-09-17T17:03:42;12.07;66.34
47757;SHT35;22147;52.388;13.390;2022-09-17T17:06:20;11.98;66.56
47757;SHT35;22147;52.388;13.390;2022-09-17T17:08:48;11.90;66.43
47757;SHT35;22147;52.388;13.390;2022-09-17T17:11:15;11.86;66.51
47757;SHT35;22147;52.388;13.390;2022-09-17T17:13:43;11.87;66.40
47757;SHT35;22147;52.388;13.390;2022-09-17T17:16:13;11.84;66.79
47757;SHT35;22147;52.388;13.390;2022-09-17T17:18:43;11.73;67.53
47757;SHT35;22147;52.388;13.390;2022-09-17T17:21:13;11.62;67.81
47757;SHT35;22147;52.388;13.390;2022-09-17T17:23:40;11.56;68.56
47757;SHT35;22147;52.388;13.390;2022-09-17T17:26:09;11.46;68.70
47757;SHT35;22147;52.388;13.390;2022-09-17T17:28:36;11.38;69.69
47757;SHT35;22147;52.388;13.390;2022-09-17T17:31:05;11.38;69.75
47757;SHT35;22147;52.388;13.390;2022-09-17T17:33:33;11.38;70.27
47757;SHT35;22147;52.388;13.390;2022-09-17T17:36:03;11.38;70.46
47757;SHT35;22147;52.388;13.390;2022-09-17T17:38:35;11.45;70.44
47757;SHT35;22147;52.388;13.390;2022-09-17T17:41:14;11.45;70.77
47757;SHT35;22147;52.388;13.390;2022-09-17T17:43:41;11.42;71.60
47757;SHT35;22147;52.388;13.390;2022-09-17T17:46:10;11.38;72.24
47757;SHT35;22147;52.388;13.390;2022-09-17T17:48:38;11.35;72.95
47757;SHT35;22147;52.388;13.390;2022-09-17T17:51:09;11.31;73.50
47757;SHT35;22147;52.388;13.390;2022-09-17T17:53:41;11.29;74.02
47757;SHT35;22147;52.388;13.390;2022-09-17T17:56:11;11.29;74.20
47757;SHT35;22147;52.388;13.390;2022-09-17T17:58:40;11.24;74.49
47757;SHT35;22147;52.388;13.390;2022-09-17T18:01:24;11.17;74.85
47757;SHT35;22147;52.388;13.390;2022-09-17T18:04:02;11.15;75.30
47757;SHT35;22147;52.388;13.390;2022-09-17T18:06:30;11.14;75.75
47757;SHT35;22147;52.388;13.390;2022-09-17T18:08:57;11.11;76.39
47757;SHT35;22147;52.388;13.390;2022-09-17T18:11:26;11.07;77.00
47757;SHT35;22147;52.388;13.390;2022-09-17T18:13:57;11.08;77.00
47757;SHT35;22147;52.388;13.390;2022-09-17T18:16:27;11.07;77.40
47757;SHT35;22147;52.388;13.390;2022-09-17T18:18:56;11.01;77.61
47757;SHT35;22147;52.388;13.390;2022-09-17T18:21:27;10.92;77.96
47757;SHT35;22147;52.388;13.390;2022-09-17T18:23:54;10.88;78.25
47757;SHT35;22147;52.388;13.390;2022-09-17T18:26:26;10.92;78.47
47757;SHT35;22147;52.388;13.390;2022-09-17T18:28:53;10.90;78.60
47757;SHT35;22147;52.388;13.390;2022-09-17T18:31:26;10.98;79.37
47757;SHT35;22147;52.388;13.390;2022-09-17T18:34:06;10.91;80.09
47757;SHT35;22147;52.388;13.390;2022-09-17T18:36:35;10.74;81.18
47757;SHT35;22147;52.388;13.390;2022-09-17T18:39:09;10.76;82.37
47757;SHT35;22147;52.388;13.390;2022-09-17T18:41:56;10.46;84.43
47757;SHT35;22147;52.388;13.390;2022-09-17T18:44:23;10.48;84.71
47757;SHT35;22147;52.388;13.390;2022-09-17T18:46:50;10.39;86.22
47757;SHT35;22147;52.388;13.390;2022-09-17T18:49:17;10.28;86.82
47757;SHT35;22147;52.388;13.390;2022-09-17T18:51:44;10.23;87.61
47757;SHT35;22147;52.388;13.390;2022-09-17T18:54:12;10.25;87.69
47757;SHT35;22147;52.388;13.390;2022-09-17T18:56:40;10.36;87.86
47757;SHT35;22147;52.388;13.390;2022-09-17T18:59:09;10.43;87.56
47757;SHT35;22147;52.388;13.390;2022-09-17T19:01:36;10.40;88.01
47757;SHT35;22147;52.388;13.390;2022-09-17T19:04:04;10.16;88.49
47757;SHT35;22147;52.388;13.390;2022-09-17T19:06:34;10.29;88.66
47757;SHT35;22147;52.388;13.390;2022-09-17T19:09:04;10.34;88.65
47757;SHT35;22147;52.388;13.390;2022-09-17T19:11:34;10.13;88.85